createdAt,value
2023-04-19T00:00:09.926Z,9.56
2023-04-19T00:02:59.101Z,9.53
2023-04-19T00:05:28.400Z,9.50
2023-04-19T00:07:56.522Z,9.47
2023-04-19T00:10:24.701Z,9.47
2023-04-19T00:12:53.191Z,9.47
2023-04-19T00:15:21.302Z,9.47
2023-04-19T00:17:49.567Z,9.45
2023-04-19T00:20:17.852Z,9.46
2023-04-19T00:22:46.529Z,9.49
2023-04-19T00:25:14.673Z,9.55
2023-04-19T00:27:42.789Z,9.57
2023-04-19T00:30:11.479Z,9.58
2023-04-19T00:32:39.732Z,9.61
2023-04-19T00:35:08.333Z,9.62
2023-04-19T00:37:36.565Z,9.65
2023-04-19T00:40:06.429Z,9.68
2023-04-19T00:42:34.796Z,9.72
2023-04-19T00:45:03.128Z,9.73
2023-04-19T00:47:31.794Z,9.73
2023-04-19T00:50:00.572Z,9.72
2023-04-19T00:52:29.579Z,9.74
2023-04-19T00:54:59.889Z,9.79
2023-04-19T00:57:29.873Z,9.77
2023-04-19T00:59:58.675Z,9.77
2023-04-19T01:02:28.805Z,9.73
2023-04-19T01:04:58.341Z,9.71
2023-04-19T01:07:27.069Z,9.68
2023-04-19T01:09:55.600Z,9.63
2023-04-19T01:12:23.702Z,9.59
2023-04-19T01:14:51.946Z,9.56
2023-04-19T01:17:20.881Z,9.54
2023-04-19T01:19:49.460Z,9.53
2023-04-19T01:22:23.122Z,9.52
2023-04-19T01:24:51.739Z,9.50
2023-04-19T01:27:20.086Z,9.47
2023-04-19T01:29:48.253Z,9.42
2023-04-19T01:32:17.494Z,9.38
2023-04-19T01:34:45.837Z,9.35
2023-04-19T01:37:14.108Z,9.33
2023-04-19T01:39:42.900Z,9.32
2023-04-19T01:42:11.101Z,9.30
2023-04-19T01:44:39.916Z,9.29
2023-04-19T01:47:08.301Z,9.30
2023-04-19T01:49:36.777Z,9.31
2023-04-19T01:52:05.012Z,9.30
2023-04-19T01:54:33.382Z,9.32
2023-04-19T01:57:01.569Z,9.33
2023-04-19T01:59:30.652Z,9.36
2023-04-19T02:01:59.338Z,9.40
2023-04-19T02:04:27.559Z,9.41
2023-04-19T02:06:55.956Z,9.43
2023-04-19T02:09:24.128Z,9.45
2023-04-19T02:11:52.285Z,9.47
2023-04-19T02:14:22.828Z,9.52
2023-04-19T02:16:51.021Z,9.57
2023-04-19T02:19:19.309Z,9.57
2023-04-19T02:21:47.633Z,9.58
2023-04-19T02:24:15.915Z,9.59
2023-04-19T02:26:44.314Z,9.61
2023-04-19T02:29:12.816Z,9.64
2023-04-19T02:31:41.094Z,9.66
2023-04-19T02:34:10.570Z,9.69
2023-04-19T02:36:39.710Z,9.65
2023-04-19T02:39:07.881Z,9.67
2023-04-19T02:41:39.746Z,9.67
2023-04-19T02:44:08.687Z,9.63
2023-04-19T02:46:36.961Z,9.57
2023-04-19T02:49:05.545Z,9.55
2023-04-19T02:51:33.777Z,9.52
2023-04-19T02:54:02.248Z,9.45
2023-04-19T02:56:31.130Z,9.42
2023-04-19T02:59:03.260Z,9.39
2023-04-19T03:01:32.390Z,9.35
2023-04-19T03:04:02.224Z,9.29
2023-04-19T03:06:31.129Z,9.25
2023-04-19T03:08:59.335Z,9.21
2023-04-19T03:11:28.819Z,9.18
2023-04-19T03:13:56.908Z,9.16
2023-04-19T03:16:25.146Z,9.16
2023-04-19T03:18:53.785Z,9.19
2023-04-19T03:21:27.441Z,9.17
2023-04-19T03:23:56.805Z,9.18
2023-04-19T03:26:26.019Z,9.19
2023-04-19T03:28:55.783Z,9.21
2023-04-19T03:31:38.028Z,9.24
2023-04-19T03:34:06.708Z,9.28
2023-04-19T03:36:40.799Z,9.32
2023-04-19T03:39:09.548Z,9.35
2023-04-19T03:41:40.395Z,9.40
2023-04-19T03:44:27.248Z,9.43
2023-04-19T03:46:55.584Z,9.47
2023-04-19T03:49:26.466Z,9.46
2023-04-19T03:52:04.588Z,9.48
2023-04-19T03:54:34.860Z,9.49
2023-04-19T03:57:04.527Z,9.53
2023-04-19T03:59:32.831Z,9.54
2023-04-19T04:02:01.235Z,9.52
2023-04-19T04:04:30.077Z,9.54
2023-04-19T04:06:58.522Z,9.54
2023-04-19T04:09:26.907Z,9.48
2023-04-19T04:11:55.237Z,9.51
2023-04-19T04:14:24.591Z,9.54
2023-04-19T04:16:52.718Z,9.56
2023-04-19T04:19:22.172Z,9.58
2023-04-19T04:21:51.129Z,9.57
2023-04-19T04:24:20.407Z,9.57
2023-04-19T04:27:21.353Z,9.55
2023-04-19T04:29:51.661Z,9.53
2023-04-19T04:32:23.693Z,9.49
2023-04-19T04:34:55.858Z,9.46
2023-04-19T04:37:35.586Z,9.43
2023-04-19T04:40:09.126Z,9.39
2023-04-19T04:42:37.959Z,9.35
2023-04-19T04:45:07.620Z,9.29
2023-04-19T04:47:38.435Z,9.26
2023-04-19T04:50:07.982Z,9.21
2023-04-19T04:52:36.128Z,9.19
2023-04-19T04:55:13.304Z,9.19
2023-04-19T04:57:44.588Z,9.20
2023-04-19T05:00:20.389Z,9.20
2023-04-19T05:03:04.490Z,9.22
2023-04-19T05:05:35.292Z,9.26
2023-04-19T05:08:04.098Z,9.27
2023-04-19T05:10:32.792Z,9.28
2023-04-19T05:13:01.775Z,9.31
2023-04-19T05:15:30.915Z,9.37
2023-04-19T05:17:59.570Z,9.42
2023-04-19T05:20:29.596Z,9.43
2023-04-19T05:23:06.692Z,9.47
2023-04-19T05:25:35.368Z,9.55
2023-04-19T05:28:04.571Z,9.60
2023-04-19T05:30:41.153Z,9.61
2023-04-19T05:33:09.409Z,9.66
2023-04-19T05:35:37.809Z,9.66
2023-04-19T05:38:06.220Z,9.72
2023-04-19T05:40:35.799Z,9.72
2023-04-19T05:43:03.973Z,9.73
2023-04-19T05:45:32.456Z,9.76
2023-04-19T05:48:00.989Z,9.78
2023-04-19T05:50:56.467Z,9.83
2023-04-19T05:53:50.867Z,9.84
2023-04-19T05:56:20.866Z,9.85
2023-04-19T05:58:50.355Z,9.85
2023-04-19T06:01:18.753Z,9.88
2023-04-19T06:03:48.133Z,9.94
2023-04-19T06:06:17.011Z,9.96
2023-04-19T06:08:46.533Z,10.02
2023-04-19T06:11:23.219Z,10.06
2023-04-19T06:13:52.997Z,10.08
2023-04-19T06:16:21.317Z,10.09
2023-04-19T06:18:50.147Z,10.10
2023-04-19T06:21:18.382Z,10.11
2023-04-19T06:23:46.522Z,10.13
2023-04-19T06:26:14.875Z,10.11
2023-04-19T06:28:43.002Z,10.07
2023-04-19T06:31:12.358Z,10.07
2023-04-19T06:33:40.731Z,10.08
2023-04-19T06:36:09.060Z,10.08
2023-04-19T06:38:38.588Z,10.09
2023-04-19T06:41:06.889Z,10.15
2023-04-19T06:43:35.023Z,10.13
2023-04-19T06:46:04.988Z,10.22
2023-04-19T06:48:34.399Z,10.32
2023-04-19T06:51:02.529Z,10.32
2023-04-19T06:53:30.846Z,10.41
2023-04-19T06:56:04.572Z,10.44
2023-04-19T06:58:35.146Z,10.54
2023-04-19T07:01:05.367Z,10.59
2023-04-19T07:03:33.825Z,10.63
2023-04-19T07:06:02.335Z,10.69
2023-04-19T07:08:42.490Z,10.73
2023-04-19T07:11:16.704Z,10.75
2023-04-19T07:13:45.718Z,10.77
2023-04-19T07:16:14.966Z,10.77
2023-04-19T07:18:44.104Z,10.81
2023-04-19T07:21:13.459Z,10.92
2023-04-19T07:23:41.605Z,11.03
2023-04-19T07:26:10.256Z,11.10
2023-04-19T07:28:40.462Z,11.11
2023-04-19T07:31:08.935Z,11.08
2023-04-19T07:33:37.631Z,11.13
2023-04-19T07:36:06.755Z,11.15
2023-04-19T07:38:35.076Z,11.16
2023-04-19T07:41:05.512Z,11.20
2023-04-19T07:43:34.259Z,11.26
2023-04-19T07:46:09.119Z,11.31
2023-04-19T07:48:38.359Z,11.33
2023-04-19T07:51:17.164Z,11.36
2023-04-19T07:53:47.112Z,11.32
2023-04-19T07:56:15.774Z,11.36
2023-04-19T07:58:46.640Z,11.38
2023-04-19T08:01:17.642Z,11.39
2023-04-19T08:03:47.013Z,11.46
2023-04-19T08:06:15.351Z,11.54
2023-04-19T08:08:45.471Z,11.60
2023-04-19T08:11:14.760Z,11.61
2023-04-19T08:13:55.091Z,11.57
2023-04-19T08:17:14.614Z,11.51
2023-04-19T08:19:20.837Z,11.52
2023-04-19T08:21:49.046Z,11.51
2023-04-19T08:24:17.497Z,11.52
2023-04-19T08:26:53.659Z,11.51
2023-04-19T08:29:22.619Z,11.56
2023-04-19T08:31:51.085Z,11.52
2023-04-19T08:34:19.309Z,11.44
2023-04-19T08:37:00.293Z,11.41
2023-04-19T08:39:34.221Z,11.42
2023-04-19T08:42:13.179Z,11.44
2023-04-19T08:47:31.284Z,11.65
2023-04-19T08:50:17.319Z,11.74
2023-04-19T08:52:58.686Z,11.74
2023-04-19T08:55:31.913Z,11.82
2023-04-19T08:58:04.036Z,11.77
2023-04-19T09:00:34.839Z,11.85
2023-04-19T09:03:03.341Z,11.99
2023-04-19T09:05:32.064Z,12.05
2023-04-19T09:08:23.835Z,12.07
2023-04-19T09:11:00.730Z,12.10
2023-04-19T09:13:30.038Z,12.15
2023-04-19T09:16:00.986Z,12.17
2023-04-19T09:18:32.175Z,12.29
2023-04-19T09:21:01.449Z,12.30
2023-04-19T09:23:29.628Z,12.28
2023-04-19T09:28:35.593Z,12.02
2023-04-19T09:31:30.307Z,11.96
2023-04-19T09:34:19.449Z,12.04
2023-04-19T09:36:50.387Z,12.03
2023-04-19T09:39:31.842Z,12.03
2023-04-19T09:42:00.569Z,12.01
2023-04-19T09:47:00.361Z,11.83
2023-04-19T09:49:45.590Z,11.78
2023-04-19T09:52:16.765Z,11.87
2023-04-19T09:54:46.164Z,11.96
2023-04-19T09:57:15.017Z,12.11
2023-04-19T09:59:43.115Z,12.21
2023-04-19T10:02:14.284Z,12.28
2023-04-19T10:05:02.642Z,12.36
2023-04-19T10:07:32.101Z,12.49
2023-04-19T10:10:15.884Z,12.59
2023-04-19T10:13:11.578Z,12.66
2023-04-19T10:15:51.312Z,12.69
2023-04-19T10:18:23.647Z,12.63
2023-04-19T10:21:02.231Z,12.67
2023-04-19T10:23:32.728Z,12.73
2023-04-19T10:26:00.930Z,12.78
2023-04-19T10:28:31.060Z,12.76
2023-04-19T10:31:04.285Z,12.81
2023-04-19T10:33:37.524Z,12.87
2023-04-19T10:36:09.175Z,12.77
2023-04-19T10:38:38.581Z,12.83
2023-04-19T10:41:14.452Z,12.86
2023-04-19T10:43:47.735Z,12.89
2023-04-19T10:46:36.801Z,12.86
2023-04-19T10:49:07.984Z,12.75
2023-04-19T10:51:43.516Z,12.72
2023-04-19T10:54:31.864Z,12.63
2023-04-19T10:57:04.751Z,12.61
2023-04-19T10:59:36.800Z,12.58
2023-04-19T11:02:28.428Z,12.50
2023-04-19T11:04:56.763Z,12.46
2023-04-19T11:07:25.192Z,12.41
2023-04-19T11:09:53.527Z,12.35
2023-04-19T11:12:22.440Z,12.31
2023-04-19T11:14:57.716Z,12.26
2023-04-19T11:17:30.740Z,12.25
2023-04-19T11:20:06.933Z,12.23
2023-04-19T11:23:01.651Z,12.23
2023-04-19T11:25:31.828Z,12.22
2023-04-19T11:28:00.702Z,12.22
2023-04-19T11:30:30.149Z,12.22
2023-04-19T11:32:58.548Z,12.22
2023-04-19T11:35:29.135Z,12.23
2023-04-19T11:37:59.394Z,12.19
2023-04-19T11:40:27.756Z,12.25
2023-04-19T11:43:01.050Z,12.22
2023-04-19T11:45:38.093Z,12.27
2023-04-19T11:48:16.588Z,12.24
2023-04-19T11:50:46.946Z,12.26
2023-04-19T11:53:22.778Z,12.28
2023-04-19T11:55:53.959Z,12.28
2023-04-19T11:58:32.385Z,12.28
2023-04-19T12:01:07.105Z,12.25
2023-04-19T12:03:43.160Z,12.18
2023-04-19T12:06:14.162Z,12.22
2023-04-19T12:08:45.571Z,12.23
2023-04-19T12:11:15.459Z,12.23
2023-04-19T12:13:44.744Z,12.26
2023-04-19T12:16:14.159Z,12.33
2023-04-19T12:18:51.428Z,12.31
2023-04-19T12:21:32.344Z,12.28
2023-04-19T12:24:01.997Z,12.28
2023-04-19T12:26:30.850Z,12.24
2023-04-19T12:29:01.007Z,12.23
2023-04-19T12:31:32.955Z,12.27
2023-04-19T12:34:01.158Z,12.33
2023-04-19T12:36:30.532Z,12.35
2023-04-19T12:38:58.706Z,12.37
2023-04-19T12:41:26.882Z,12.42
2023-04-19T12:43:55.020Z,12.45
2023-04-19T12:46:23.304Z,12.49
2023-04-19T12:48:51.600Z,12.52
2023-04-19T12:51:19.960Z,12.59
2023-04-19T12:53:52.679Z,12.66
2023-04-19T12:56:21.475Z,12.72
2023-04-19T12:58:49.584Z,12.79
2023-04-19T13:01:17.731Z,12.88
2023-04-19T13:03:46.494Z,12.98
2023-04-19T13:06:16.993Z,13.04
2023-04-19T13:08:47.404Z,13.07
2023-04-19T13:11:17.925Z,13.09
2023-04-19T13:13:46.116Z,13.17
2023-04-19T13:16:14.551Z,13.23
2023-04-19T13:18:43.149Z,13.26
2023-04-19T13:21:11.909Z,13.32
2023-04-19T13:23:40.582Z,13.43
2023-04-19T13:26:08.728Z,13.58
2023-04-19T13:28:37.152Z,13.71
2023-04-19T13:31:05.922Z,13.77
2023-04-19T13:33:34.249Z,13.81
2023-04-19T13:36:02.757Z,13.86
2023-04-19T13:38:30.989Z,13.91
2023-04-19T13:40:59.993Z,13.93
2023-04-19T13:43:28.180Z,13.91
2023-04-19T13:45:56.266Z,13.90
2023-04-19T13:48:27.387Z,13.90
2023-04-19T13:50:56.795Z,13.83
2023-04-19T13:53:27.709Z,13.76
2023-04-19T13:55:56.853Z,13.63
2023-04-19T13:58:25.089Z,13.61
2023-04-19T14:00:54.197Z,13.56
2023-04-19T14:03:24.408Z,13.50
2023-04-19T14:05:52.890Z,13.47
2023-04-19T14:08:21.255Z,13.42
2023-04-19T14:10:50.796Z,13.45
2023-04-19T14:13:19.160Z,13.41
2023-04-19T14:15:47.246Z,13.38
2023-04-19T14:18:15.346Z,13.33
2023-04-19T14:20:43.547Z,13.26
2023-04-19T14:23:11.641Z,13.20
2023-04-19T14:25:39.995Z,13.17
2023-04-19T14:28:08.198Z,13.09
2023-04-19T14:30:36.342Z,13.05
2023-04-19T14:33:04.475Z,13.00
2023-04-19T14:35:33.257Z,12.96
2023-04-19T14:38:01.672Z,12.94
2023-04-19T14:40:29.741Z,12.92
2023-04-19T14:42:58.054Z,12.92
2023-04-19T14:45:27.732Z,12.91
2023-04-19T14:47:56.385Z,12.90
2023-04-19T14:50:24.513Z,12.87
2023-04-19T14:52:54.829Z,12.85
2023-04-19T14:55:25.064Z,12.85
2023-04-19T14:57:53.543Z,12.87
2023-04-19T15:00:21.740Z,12.90
2023-04-19T15:02:50.189Z,12.91
2023-04-19T15:05:18.737Z,12.94
2023-04-19T15:07:47.218Z,12.92
2023-04-19T15:10:15.635Z,12.96
2023-04-19T15:12:43.765Z,12.98
2023-04-19T15:15:12.256Z,13.01
2023-04-19T15:17:41.096Z,12.99
2023-04-19T15:20:10.175Z,12.96
2023-04-19T15:22:38.415Z,12.93
2023-04-19T15:25:06.850Z,12.93
2023-04-19T15:27:35.152Z,12.89
2023-04-19T15:30:03.995Z,12.84
2023-04-19T15:32:34.566Z,12.80
2023-04-19T15:35:02.809Z,12.75
2023-04-19T15:37:31.100Z,12.65
2023-04-19T15:39:59.254Z,12.56
2023-04-19T15:42:27.432Z,12.52
2023-04-19T15:44:55.558Z,12.46
2023-04-19T15:47:23.784Z,12.40
2023-04-19T15:49:52.964Z,12.33
2023-04-19T15:52:21.923Z,12.27
2023-04-19T15:54:51.113Z,12.21
2023-04-19T15:57:19.364Z,12.14
2023-04-19T15:59:47.431Z,12.05
2023-04-19T16:02:15.694Z,11.97
2023-04-19T16:04:48.474Z,11.91
2023-04-19T16:07:16.664Z,11.86
2023-04-19T16:09:44.745Z,11.83
2023-04-19T16:12:14.297Z,11.80
2023-04-19T16:14:42.629Z,11.75
2023-04-19T16:17:10.725Z,11.69
2023-04-19T16:19:39.071Z,11.64
2023-04-19T16:22:07.481Z,11.61
2023-04-19T16:24:35.719Z,11.57
2023-04-19T16:27:04.454Z,11.57
2023-04-19T16:29:32.809Z,11.57
2023-04-19T16:32:01.101Z,11.58
2023-04-19T16:34:29.527Z,11.61
2023-04-19T16:36:57.977Z,11.63
2023-04-19T16:39:26.338Z,11.62
2023-04-19T16:41:54.449Z,11.61
2023-04-19T16:44:22.527Z,11.56
2023-04-19T16:46:50.877Z,11.49
2023-04-19T16:49:19.147Z,11.50
2023-04-19T16:51:47.289Z,11.47
2023-04-19T16:54:15.559Z,11.48
2023-04-19T16:56:43.637Z,11.47
2023-04-19T16:59:11.695Z,11.49
2023-04-19T17:01:40.139Z,11.46
2023-04-19T17:04:08.399Z,11.50
2023-04-19T17:06:36.855Z,11.50
2023-04-19T17:09:07.956Z,11.46
2023-04-19T17:11:36.105Z,11.42
2023-04-19T17:14:04.628Z,11.42
2023-04-19T17:16:32.793Z,11.44
2023-04-19T17:19:01.007Z,11.43
2023-04-19T17:21:29.253Z,11.45
2023-04-19T17:23:57.804Z,11.46
2023-04-19T17:26:25.966Z,11.45
2023-04-19T17:28:54.311Z,11.43
2023-04-19T17:31:22.976Z,11.42
2023-04-19T17:33:51.834Z,11.44
2023-04-19T17:36:20.422Z,11.44
2023-04-19T17:38:48.640Z,11.44
2023-04-19T17:41:17.417Z,11.41
2023-04-19T17:43:47.783Z,11.34
2023-04-19T17:46:16.349Z,11.22
2023-04-19T17:48:44.654Z,11.22
2023-04-19T17:51:13.624Z,11.19
2023-04-19T17:53:41.773Z,11.12
2023-04-19T17:56:09.931Z,11.09
2023-04-19T17:58:39.298Z,11.07
2023-04-19T18:01:09.104Z,11.02
2023-04-19T18:03:38.305Z,10.96
2023-04-19T18:06:09.919Z,10.94
2023-04-19T18:08:38.161Z,10.89
2023-04-19T18:11:07.100Z,10.82
2023-04-19T18:13:37.031Z,10.81
2023-04-19T18:16:06.453Z,10.78
2023-04-19T18:18:34.648Z,10.75
2023-04-19T18:21:06.716Z,10.73
2023-04-19T18:23:35.079Z,10.73
2023-04-19T18:26:04.242Z,10.71
2023-04-19T18:28:32.506Z,10.74
2023-04-19T18:31:00.912Z,10.76
2023-04-19T18:33:29.055Z,10.78
2023-04-19T18:36:00.049Z,10.77
2023-04-19T18:38:29.436Z,10.78
2023-04-19T18:40:58.625Z,10.82
2023-04-19T18:43:30.564Z,10.81
2023-04-19T18:46:00.413Z,10.79
2023-04-19T18:48:30.048Z,10.82
2023-04-19T18:50:59.420Z,10.82
2023-04-19T18:53:29.537Z,10.87
2023-04-19T18:55:58.551Z,10.86
2023-04-19T18:58:29.721Z,10.87
2023-04-19T19:00:58.981Z,10.85
2023-04-19T19:05:59.773Z,10.84
2023-04-19T19:08:28.626Z,10.84
2023-04-19T19:11:25.156Z,10.84
2023-04-19T19:13:45.328Z,10.82
2023-04-19T19:16:13.510Z,10.80
2023-04-19T19:18:42.016Z,10.79
2023-04-19T19:21:10.266Z,10.82
2023-04-19T19:23:42.193Z,10.84
2023-04-19T19:26:13.159Z,10.88
2023-04-19T19:28:42.163Z,10.90
2023-04-19T19:31:10.870Z,10.85
2023-04-19T19:33:40.754Z,10.85
2023-04-19T19:36:09.695Z,10.83
2023-04-19T19:38:38.033Z,10.78
2023-04-19T19:43:37.976Z,10.70
2023-04-19T19:46:06.765Z,10.65
2023-04-19T19:48:40.633Z,10.62
2023-04-19T19:51:36.455Z,10.59
2023-04-19T19:53:58.930Z,10.55
2023-04-19T19:56:28.161Z,10.50
2023-04-19T19:58:57.780Z,10.48
2023-04-19T20:01:27.241Z,10.46
2023-04-19T20:03:58.917Z,10.43
2023-04-19T20:07:21.444Z,10.39
2023-04-19T20:09:16.632Z,10.33
2023-04-19T20:11:45.103Z,10.33
2023-04-19T20:14:14.442Z,10.32
2023-04-19T20:16:43.499Z,10.30
2023-04-19T20:19:13.391Z,10.32
2023-04-19T20:21:41.621Z,10.28
2023-04-19T20:24:10.310Z,10.32
2023-04-19T20:26:38.689Z,10.35
2023-04-19T20:29:07.376Z,10.38
2023-04-19T20:31:35.632Z,10.41
2023-04-19T20:34:04.369Z,10.46
2023-04-19T20:36:34.132Z,10.50
2023-04-19T20:39:09.900Z,10.54
2023-04-19T20:41:38.094Z,10.60
2023-04-19T20:44:06.560Z,10.66
2023-04-19T20:46:35.951Z,10.74
2023-04-19T20:49:04.839Z,10.77
2023-04-19T20:51:33.229Z,10.79
2023-04-19T20:54:01.468Z,10.75
2023-04-19T20:56:29.587Z,10.68
2023-04-19T20:58:57.984Z,10.66
2023-04-19T21:01:26.497Z,10.69
2023-04-19T21:03:54.883Z,10.64
2023-04-19T21:06:23.547Z,10.64
2023-04-19T21:08:51.997Z,10.67
2023-04-19T21:11:21.086Z,10.73
2023-04-19T21:13:49.422Z,10.75
2023-04-19T21:16:17.833Z,10.73
2023-04-19T21:18:45.919Z,10.75
2023-04-19T21:21:14.159Z,10.71
2023-04-19T21:23:42.348Z,10.65
2023-04-19T21:26:11.791Z,10.66
2023-04-19T21:28:40.541Z,10.60
2023-04-19T21:31:08.782Z,10.58
2023-04-19T21:33:36.952Z,10.58
2023-04-19T21:36:05.640Z,10.56
2023-04-19T21:38:34.503Z,10.52
2023-04-19T21:41:02.688Z,10.51
2023-04-19T21:43:31.789Z,10.49
2023-04-19T21:46:01.860Z,10.46
2023-04-19T21:48:30.462Z,10.43
2023-04-19T21:50:58.756Z,10.37
2023-04-19T21:53:27.054Z,10.34
2023-04-19T22:08:22.734Z,10.90
2023-04-19T22:10:50.836Z,10.96
2023-04-19T22:13:18.962Z,10.95
2023-04-19T22:15:47.082Z,10.94
2023-04-19T22:18:15.153Z,10.96
2023-04-19T22:20:43.296Z,10.89
2023-04-19T22:23:11.387Z,10.85
2023-04-19T22:25:39.540Z,10.88
2023-04-19T22:28:07.939Z,10.85
2023-04-19T22:30:36.263Z,10.85
2023-04-19T22:33:04.461Z,10.92
2023-04-19T22:35:32.733Z,10.92
2023-04-19T22:38:00.885Z,10.92
2023-04-19T22:40:29.058Z,10.93
2023-04-19T22:42:57.260Z,10.92
2023-04-19T22:45:25.724Z,10.89
2023-04-19T22:47:53.922Z,10.88
2023-04-19T22:50:23.706Z,10.88
2023-04-19T22:52:51.995Z,10.94
2023-04-19T22:55:20.106Z,10.94
2023-04-19T22:57:48.216Z,10.95
2023-04-19T23:00:18.360Z,10.97
2023-04-19T23:02:46.742Z,10.93
2023-04-19T23:05:15.151Z,10.91
2023-04-19T23:07:43.864Z,10.90
2023-04-19T23:10:12.566Z,10.90
2023-04-19T23:12:40.758Z,10.82
2023-04-19T23:15:10.634Z,10.79
2023-04-19T23:17:39.636Z,10.75
2023-04-19T23:20:12.595Z,10.70
2023-04-19T23:22:40.710Z,10.72
2023-04-19T23:25:10.026Z,10.69
2023-04-19T23:27:38.197Z,10.66
2023-04-19T23:30:09.063Z,10.62
2023-04-19T23:32:37.231Z,10.53
2023-04-19T23:35:05.935Z,10.46
2023-04-19T23:37:34.186Z,10.39
2023-04-19T23:40:03.653Z,10.30
2023-04-19T23:42:31.830Z,10.24
2023-04-19T23:45:00.048Z,10.23
2023-04-19T23:47:28.192Z,10.21
2023-04-19T23:49:56.284Z,10.17
2023-04-19T23:52:25.095Z,10.17
2023-04-19T23:54:53.136Z,10.21
2023-04-19T23:57:21.250Z,10.26
2023-04-19T23:59:50.309Z,10.31
